Terminal Aerodrome Forecast
Issued by NWS

Home | Current Version | Previous Version | Text Only | Print | Product List | Glossary On
Versions: 1 2 3 4 5 6 7 8 9 10 11 12 13 14 15 16 17 18 19 20 21
429
FTUS41 KILN 250540
TAFLCK
TAF
KLCK 250540Z 2506/2606 00000KT P6SM SCT100 BKN250
      TEMPO 2509/2512 4SM BR
     FM251300 23005KT P6SM SCT100 BKN250
     FM251600 26010KT P6SM VCTS BKN040CB
     FM252100 28009KT P6SM VCTS SCT040CB
     FM260100 24003KT P6SM SCT250=

USA.gov is the U.S. government's official web portal to all federal, state and local government web resources and services.